sensor_id;sensor_type;location;lat;lon;timestamp;P1;durP1;ratioP1;P2;durP2;ratioP2
25263;SDS011;13211;51.796;5.808;2023-09-19T00:00:44;13.07;;;2.83;;
25263;SDS011;13211;51.796;5.808;2023-09-19T00:03:14;18.42;;;3.50;;
25263;SDS011;13211;51.796;5.808;2023-09-19T00:05:42;20.75;;;2.92;;
25263;SDS011;13211;51.796;5.808;2023-09-19T00:08:12;10.50;;;2.85;;
25263;SDS011;13211;51.796;5.808;2023-09-19T00:13:35;17.15;;;3.55;;
25263;SDS011;13211;51.796;5.808;2023-09-19T00:16:10;18.40;;;4.15;;
25263;SDS011;13211;51.796;5.808;2023-09-19T00:18:39;26.20;;;4.25;;
25263;SDS011;13211;51.796;5.808;2023-09-19T00:21:06;18.90;;;4.63;;
25263;SDS011;13211;51.796;5.808;2023-09-19T00:23:34;25.80;;;5.30;;
25263;SDS011;13211;51.796;5.808;2023-09-19T00:26:02;23.60;;;5.00;;
25263;SDS011;13211;51.796;5.808;2023-09-19T00:28:31;33.38;;;4.45;;
25263;SDS011;13211;51.796;5.808;2023-09-19T00:30:59;25.67;;;4.65;;
25263;SDS011;13211;51.796;5.808;2023-09-19T00:33:30;22.55;;;4.10;;
25263;SDS011;13211;51.796;5.808;2023-09-19T00:35:58;31.67;;;4.47;;
25263;SDS011;13211;51.796;5.808;2023-09-19T00:38:26;26.70;;;4.53;;
25263;SDS011;13211;51.796;5.808;2023-09-19T00:40:54;26.75;;;4.50;;
25263;SDS011;13211;51.796;5.808;2023-09-19T00:43:28;22.35;;;3.95;;
25263;SDS011;13211;51.796;5.808;2023-09-19T00:45:56;21.02;;;3.72;;
25263;SDS011;13211;51.796;5.808;2023-09-19T00:48:24;27.73;;;4.05;;
25263;SDS011;13211;51.796;5.808;2023-09-19T00:53:22;24.80;;;3.78;;
25263;SDS011;13211;51.796;5.808;2023-09-19T00:55:54;27.95;;;3.50;;
25263;SDS011;13211;51.796;5.808;2023-09-19T00:58:23;16.60;;;3.10;;
25263;SDS011;13211;51.796;5.808;2023-09-19T01:00:51;22.55;;;3.55;;
25263;SDS011;13211;51.796;5.808;2023-09-19T01:03:19;24.10;;;3.15;;
25263;SDS011;13211;51.796;5.808;2023-09-19T01:05:48;23.10;;;3.53;;
25263;SDS011;13211;51.796;5.808;2023-09-19T01:08:18;27.77;;;3.53;;
25263;SDS011;13211;51.796;5.808;2023-09-19T01:10:52;19.85;;;3.45;;
25263;SDS011;13211;51.796;5.808;2023-09-19T01:13:58;23.23;;;4.15;;
25263;SDS011;13211;51.796;5.808;2023-09-19T01:16:19;25.08;;;3.38;;
25263;SDS011;13211;51.796;5.808;2023-09-19T01:18:55;26.42;;;3.20;;
25263;SDS011;13211;51.796;5.808;2023-09-19T01:21:36;29.50;;;3.27;;
25263;SDS011;13211;51.796;5.808;2023-09-19T01:24:10;21.63;;;3.13;;
25263;SDS011;13211;51.796;5.808;2023-09-19T01:29:45;21.25;;;3.72;;
25263;SDS011;13211;51.796;5.808;2023-09-19T01:32:15;30.08;;;4.18;;
25263;SDS011;13211;51.796;5.808;2023-09-19T01:35:04;27.95;;;3.70;;
25263;SDS011;13211;51.796;5.808;2023-09-19T01:37:32;20.33;;;3.47;;
25263;SDS011;13211;51.796;5.808;2023-09-19T01:40:02;29.42;;;3.38;;
25263;SDS011;13211;51.796;5.808;2023-09-19T01:42:42;27.42;;;3.88;;
25263;SDS011;13211;51.796;5.808;2023-09-19T01:45:12;31.85;;;3.88;;
25263;SDS011;13211;51.796;5.808;2023-09-19T01:50:26;26.08;;;3.70;;
25263;SDS011;13211;51.796;5.808;2023-09-19T01:53:05;14.90;;;3.10;;
25263;SDS011;13211;51.796;5.808;2023-09-19T01:55:41;24.17;;;3.83;;
25263;SDS011;13211;51.796;5.808;2023-09-19T01:58:14;24.23;;;2.90;;
25263;SDS011;13211;51.796;5.808;2023-09-19T02:00:44;23.15;;;3.42;;
25263;SDS011;13211;51.796;5.808;2023-09-19T02:03:13;19.77;;;2.93;;
25263;SDS011;13211;51.796;5.808;2023-09-19T02:05:48;22.25;;;3.25;;
25263;SDS011;13211;51.796;5.808;2023-09-19T02:08:17;24.70;;;2.88;;
25263;SDS011;13211;51.796;5.808;2023-09-19T02:10:46;16.33;;;3.15;;
25263;SDS011;13211;51.796;5.808;2023-09-19T02:13:18;22.98;;;3.17;;
25263;SDS011;13211;51.796;5.808;2023-09-19T02:15:47;26.05;;;3.65;;
25263;SDS011;13211;51.796;5.808;2023-09-19T02:18:14;25.88;;;3.67;;
25263;SDS011;13211;51.796;5.808;2023-09-19T02:20:42;22.20;;;2.90;;
25263;SDS011;13211;51.796;5.808;2023-09-19T02:23:10;28.63;;;3.90;;
25263;SDS011;13211;51.796;5.808;2023-09-19T02:25:38;17.63;;;3.17;;
25263;SDS011;13211;51.796;5.808;2023-09-19T02:28:07;22.73;;;2.78;;
25263;SDS011;13211;51.796;5.808;2023-09-19T02:30:36;16.83;;;2.95;;
25263;SDS011;13211;51.796;5.808;2023-09-19T02:33:04;25.77;;;3.10;;
25263;SDS011;13211;51.796;5.808;2023-09-19T02:35:32;22.80;;;3.50;;
25263;SDS011;13211;51.796;5.808;2023-09-19T02:38:08;24.90;;;3.45;;
25263;SDS011;13211;51.796;5.808;2023-09-19T02:40:38;20.00;;;2.90;;
25263;SDS011;13211;51.796;5.808;2023-09-19T02:43:06;23.08;;;3.38;;
25263;SDS011;13211;51.796;5.808;2023-09-19T02:45:35;31.17;;;3.22;;
25263;SDS011;13211;51.796;5.808;2023-09-19T02:48:03;26.98;;;3.17;;
25263;SDS011;13211;51.796;5.808;2023-09-19T02:50:31;22.63;;;2.92;;
25263;SDS011;13211;51.796;5.808;2023-09-19T02:53:00;17.98;;;3.10;;
25263;SDS011;13211;51.796;5.808;2023-09-19T02:55:28;17.23;;;2.72;;
25263;SDS011;13211;51.796;5.808;2023-09-19T02:57:56;29.92;;;3.38;;
25263;SDS011;13211;51.796;5.808;2023-09-19T03:00:24;16.27;;;2.65;;
25263;SDS011;13211;51.796;5.808;2023-09-19T03:02:55;17.75;;;3.05;;
25263;SDS011;13211;51.796;5.808;2023-09-19T03:05:24;17.42;;;2.80;;
25263;SDS011;13211;51.796;5.808;2023-09-19T03:07:53;22.52;;;2.95;;
25263;SDS011;13211;51.796;5.808;2023-09-19T03:10:22;21.65;;;3.00;;
25263;SDS011;13211;51.796;5.808;2023-09-19T03:12:52;16.87;;;3.20;;
25263;SDS011;13211;51.796;5.808;2023-09-19T03:15:20;21.73;;;2.90;;
25263;SDS011;13211;51.796;5.808;2023-09-19T03:17:50;18.20;;;3.00;;
25263;SDS011;13211;51.796;5.808;2023-09-19T03:20:23;25.25;;;3.03;;
25263;SDS011;13211;51.796;5.808;2023-09-19T03:22:52;22.08;;;3.38;;
25263;SDS011;13211;51.796;5.808;2023-09-19T03:25:21;18.50;;;2.78;;
25263;SDS011;13211;51.796;5.808;2023-09-19T03:27:51;22.23;;;3.83;;
25263;SDS011;13211;51.796;5.808;2023-09-19T03:30:20;21.45;;;3.10;;
25263;SDS011;13211;51.796;5.808;2023-09-19T03:32:48;18.13;;;3.13;;
25263;SDS011;13211;51.796;5.808;2023-09-19T03:35:18;16.05;;;3.00;;
25263;SDS011;13211;51.796;5.808;2023-09-19T03:37:47;16.42;;;2.90;;
25263;SDS011;13211;51.796;5.808;2023-09-19T03:40:15;20.83;;;3.25;;
25263;SDS011;13211;51.796;5.808;2023-09-19T03:42:43;25.52;;;3.08;;
25263;SDS011;13211;51.796;5.808;2023-09-19T03:45:12;22.67;;;3.00;;
25263;SDS011;13211;51.796;5.808;2023-09-19T03:47:51;21.40;;;2.60;;
25263;SDS011;13211;51.796;5.808;2023-09-19T03:50:22;16.92;;;2.65;;
25263;SDS011;13211;51.796;5.808;2023-09-19T03:52:50;27.33;;;3.75;;
25263;SDS011;13211;51.796;5.808;2023-09-19T03:55:18;16.33;;;3.17;;
25263;SDS011;13211;51.796;5.808;2023-09-19T03:57:49;20.40;;;2.85;;
25263;SDS011;13211;51.796;5.808;2023-09-19T04:00:17;18.25;;;2.72;;
25263;SDS011;13211;51.796;5.808;2023-09-19T04:02:48;12.68;;;2.05;;
25263;SDS011;13211;51.796;5.808;2023-09-19T04:05:16;15.20;;;3.17;;
25263;SDS011;13211;51.796;5.808;2023-09-19T04:07:45;17.15;;;2.17;;
25263;SDS011;13211;51.796;5.808;2023-09-19T04:10:12;20.73;;;2.78;;
25263;SDS011;13211;51.796;5.808;2023-09-19T04:12:50;16.17;;;2.67;;
25263;SDS011;13211;51.796;5.808;2023-09-19T04:15:24;14.15;;;2.42;;
25263;SDS011;13211;51.796;5.808;2023-09-19T04:17:53;20.52;;;2.80;;
25263;SDS011;13211;51.796;5.808;2023-09-19T04:20:21;19.05;;;2.33;;
25263;SDS011;13211;51.796;5.808;2023-09-19T04:22:50;14.43;;;2.40;;
25263;SDS011;13211;51.796;5.808;2023-09-19T04:25:18;17.38;;;2.75;;
25263;SDS011;13211;51.796;5.808;2023-09-19T04:27:47;22.15;;;2.60;;
25263;SDS011;13211;51.796;5.808;2023-09-19T04:30:15;21.15;;;2.88;;
25263;SDS011;13211;51.796;5.808;2023-09-19T04:32:42;18.65;;;2.83;;
25263;SDS011;13211;51.796;5.808;2023-09-19T04:35:10;16.00;;;2.50;;
25263;SDS011;13211;51.796;5.808;2023-09-19T04:37:38;13.23;;;2.28;;
25263;SDS011;13211;51.796;5.808;2023-09-19T04:40:09;18.77;;;2.90;;
25263;SDS011;13211;51.796;5.808;2023-09-19T04:42:55;20.50;;;2.92;;
25263;SDS011;13211;51.796;5.808;2023-09-19T04:45:24;17.02;;;2.88;;
25263;SDS011;13211;51.796;5.808;2023-09-19T04:47:52;13.32;;;2.28;;
25263;SDS011;13211;51.796;5.808;2023-09-19T04:50:20;24.17;;;3.10;;
25263;SDS011;13211;51.796;5.808;2023-09-19T04:52:49;18.95;;;2.40;;
25263;SDS011;13211;51.796;5.808;2023-09-19T04:55:18;18.10;;;2.30;;
25263;SDS011;13211;51.796;5.808;2023-09-19T04:57:46;18.95;;;2.40;;
25263;SDS011;13211;51.796;5.808;2023-09-19T05:00:15;21.17;;;2.67;;
25263;SDS011;13211;51.796;5.808;2023-09-19T05:02:43;19.90;;;2.22;;
25263;SDS011;13211;51.796;5.808;2023-09-19T05:05:11;16.63;;;3.30;;
25263;SDS011;13211;51.796;5.808;2023-09-19T05:07:44;21.67;;;2.85;;
25263;SDS011;13211;51.796;5.808;2023-09-19T05:10:11;19.27;;;2.53;;
25263;SDS011;13211;51.796;5.808;2023-09-19T05:12:40;16.95;;;2.40;;
25263;SDS011;13211;51.796;5.808;2023-09-19T05:15:08;16.17;;;2.47;;
25263;SDS011;13211;51.796;5.808;2023-09-19T05:17:36;15.50;;;2.28;;
25263;SDS011;13211;51.796;5.808;2023-09-19T05:20:05;15.50;;;2.20;;
25263;SDS011;13211;51.796;5.808;2023-09-19T05:22:39;12.35;;;2.28;;
25263;SDS011;13211;51.796;5.808;2023-09-19T05:25:07;16.08;;;2.58;;
25263;SDS011;13211;51.796;5.808;2023-09-19T05:27:35;13.70;;;2.90;;
25263;SDS011;13211;51.796;5.808;2023-09-19T05:30:03;19.45;;;2.53;;
25263;SDS011;13211;51.796;5.808;2023-09-19T05:32:31;15.70;;;2.70;;
25263;SDS011;13211;51.796;5.808;2023-09-19T05:34:58;18.25;;;3.92;;
25263;SDS011;13211;51.796;5.808;2023-09-19T05:37:26;21.13;;;3.35;;
25263;SDS011;13211;51.796;5.808;2023-09-19T05:39:54;16.88;;;2.40;;
25263;SDS011;13211;51.796;5.808;2023-09-19T05:42:21;22.63;;;2.88;;
25263;SDS011;13211;51.796;5.808;2023-09-19T05:44:49;20.55;;;2.70;;
25263;SDS011;13211;51.796;5.808;2023-09-19T05:47:16;20.70;;;3.58;;
25263;SDS011;13211;51.796;5.808;2023-09-19T05:49:44;19.65;;;2.22;;
25263;SDS011;13211;51.796;5.808;2023-09-19T05:52:12;16.65;;;2.72;;
25263;SDS011;13211;51.796;5.808;2023-09-19T05:54:40;17.55;;;2.90;;
25263;SDS011;13211;51.796;5.808;2023-09-19T05:57:09;23.65;;;2.47;;
25263;SDS011;13211;51.796;5.808;2023-09-19T05:59:38;15.82;;;2.13;;
25263;SDS011;13211;51.796;5.808;2023-09-19T06:02:06;17.83;;;2.80;;
25263;SDS011;13211;51.796;5.808;2023-09-19T06:04:36;20.02;;;2.53;;
25263;SDS011;13211;51.796;5.808;2023-09-19T06:07:07;19.77;;;2.90;;
25263;SDS011;13211;51.796;5.808;2023-09-19T06:09:34;19.02;;;2.85;;
25263;SDS011;13211;51.796;5.808;2023-09-19T06:12:02;18.55;;;2.67;;
25263;SDS011;13211;51.796;5.808;2023-09-19T06:14:31;25.38;;;3.30;;
25263;SDS011;13211;51.796;5.808;2023-09-19T06:16:58;30.10;;;3.97;;
25263;SDS011;13211;51.796;5.808;2023-09-19T06:19:27;17.27;;;2.80;;
25263;SDS011;13211;51.796;5.808;2023-09-19T06:21:54;24.45;;;2.80;;
25263;SDS011;13211;51.796;5.808;2023-09-19T06:24:22;23.83;;;2.95;;
25263;SDS011;13211;51.796;5.808;2023-09-19T06:26:49;22.23;;;3.47;;
25263;SDS011;13211;51.796;5.808;2023-09-19T06:29:21;25.52;;;2.85;;
25263;SDS011;13211;51.796;5.808;2023-09-19T06:31:49;16.02;;;2.60;;
25263;SDS011;13211;51.796;5.808;2023-09-19T06:34:17;15.43;;;2.78;;
25263;SDS011;13211;51.796;5.808;2023-09-19T06:36:45;18.70;;;2.65;;
25263;SDS011;13211;51.796;5.808;2023-09-19T06:39:12;21.05;;;2.58;;
25263;SDS011;13211;51.796;5.808;2023-09-19T06:41:41;17.38;;;3.13;;
25263;SDS011;13211;51.796;5.808;2023-09-19T06:44:09;14.88;;;2.25;;
25263;SDS011;13211;51.796;5.808;2023-09-19T06:46:37;18.25;;;2.83;;
25263;SDS011;13211;51.796;5.808;2023-09-19T06:49:05;19.67;;;2.72;;
25263;SDS011;13211;51.796;5.808;2023-09-19T06:51:33;18.70;;;3.10;;
25263;SDS011;13211;51.796;5.808;2023-09-19T06:54:01;24.08;;;3.15;;
25263;SDS011;13211;51.796;5.808;2023-09-19T06:56:31;26.33;;;3.20;;
25263;SDS011;13211;51.796;5.808;2023-09-19T06:58:59;25.25;;;3.58;;
25263;SDS011;13211;51.796;5.808;2023-09-19T07:01:29;22.67;;;3.10;;
25263;SDS011;13211;51.796;5.808;2023-09-19T07:03:58;22.83;;;3.37;;
25263;SDS011;13211;51.796;5.808;2023-09-19T07:06:27;19.50;;;3.20;;
25263;SDS011;13211;51.796;5.808;2023-09-19T07:08:54;20.27;;;3.53;;
25263;SDS011;13211;51.796;5.808;2023-09-19T07:11:22;18.92;;;3.03;;
25263;SDS011;13211;51.796;5.808;2023-09-19T07:13:52;18.27;;;2.67;;
25263;SDS011;13211;51.796;5.808;2023-09-19T07:16:19;17.60;;;2.63;;
25263;SDS011;13211;51.796;5.808;2023-09-19T07:18:56;17.15;;;3.33;;
25263;SDS011;13211;51.796;5.808;2023-09-19T07:21:24;20.35;;;3.00;;
25263;SDS011;13211;51.796;5.808;2023-09-19T07:23:52;23.08;;;3.38;;
25263;SDS011;13211;51.796;5.808;2023-09-19T07:26:20;24.13;;;3.00;;
25263;SDS011;13211;51.796;5.808;2023-09-19T07:28:48;22.83;;;3.90;;
25263;SDS011;13211;51.796;5.808;2023-09-19T07:31:16;26.08;;;3.33;;
25263;SDS011;13211;51.796;5.808;2023-09-19T07:33:44;19.52;;;2.80;;
25263;SDS011;13211;51.796;5.808;2023-09-19T07:36:12;22.25;;;3.80;;
25263;SDS011;13211;51.796;5.808;2023-09-19T07:38:40;23.77;;;3.20;;
25263;SDS011;13211;51.796;5.808;2023-09-19T07:41:08;20.17;;;3.00;;
25263;SDS011;13211;51.796;5.808;2023-09-19T07:43:37;25.35;;;3.50;;
25263;SDS011;13211;51.796;5.808;2023-09-19T07:46:07;21.33;;;3.38;;
25263;SDS011;13211;51.796;5.808;2023-09-19T07:48:39;19.42;;;3.58;;
25263;SDS011;13211;51.796;5.808;2023-09-19T07:51:08;22.35;;;3.28;;
25263;SDS011;13211;51.796;5.808;2023-09-19T07:53:36;22.27;;;3.20;;
25263;SDS011;13211;51.796;5.808;2023-09-19T07:56:05;16.10;;;2.90;;
25263;SDS011;13211;51.796;5.808;2023-09-19T07:58:33;27.25;;;3.40;;
25263;SDS011;13211;51.796;5.808;2023-09-19T08:01:05;22.52;;;3.05;;
25263;SDS011;13211;51.796;5.808;2023-09-19T08:03:33;28.13;;;3.83;;
25263;SDS011;13211;51.796;5.808;2023-09-19T08:06:04;25.60;;;3.13;;
25263;SDS011;13211;51.796;5.808;2023-09-19T08:08:33;21.45;;;2.90;;
25263;SDS011;13211;51.796;5.808;2023-09-19T08:11:04;17.67;;;3.05;;
25263;SDS011;13211;51.796;5.808;2023-09-19T08:13:39;25.48;;;3.17;;
25263;SDS011;13211;51.796;5.808;2023-09-19T08:16:10;19.63;;;3.38;;
25263;SDS011;13211;51.796;5.808;2023-09-19T08:18:38;19.10;;;2.60;;
25263;SDS011;13211;51.796;5.808;2023-09-19T08:21:06;21.33;;;3.08;;
25263;SDS011;13211;51.796;5.808;2023-09-19T08:23:37;20.58;;;4.05;;
25263;SDS011;13211;51.796;5.808;2023-09-19T08:26:06;17.13;;;3.00;;
25263;SDS011;13211;51.796;5.808;2023-09-19T08:28:35;27.08;;;3.15;;
25263;SDS011;13211;51.796;5.808;2023-09-19T08:31:03;18.17;;;3.15;;
25263;SDS011;13211;51.796;5.808;2023-09-19T08:33:36;26.83;;;3.65;;
25263;SDS011;13211;51.796;5.808;2023-09-19T08:36:06;23.45;;;3.47;;
25263;SDS011;13211;51.796;5.808;2023-09-19T08:41:07;28.58;;;3.03;;
25263;SDS011;13211;51.796;5.808;2023-09-19T08:43:35;24.27;;;3.38;;
25263;SDS011;13211;51.796;5.808;2023-09-19T08:46:10;23.02;;;3.33;;
25263;SDS011;13211;51.796;5.808;2023-09-19T08:49:03;23.23;;;3.10;;
25263;SDS011;13211;51.796;5.808;2023-09-19T08:51:30;22.35;;;2.75;;
25263;SDS011;13211;51.796;5.808;2023-09-19T08:56:28;20.73;;;3.20;;
25263;SDS011;13211;51.796;5.808;2023-09-19T08:59:02;12.55;;;2.75;;
25263;SDS011;13211;51.796;5.808;2023-09-19T09:01:31;20.27;;;4.00;;
25263;SDS011;13211;51.796;5.808;2023-09-19T09:03:59;17.52;;;2.58;;
25263;SDS011;13211;51.796;5.808;2023-09-19T09:06:28;18.05;;;3.20;;
25263;SDS011;13211;51.796;5.808;2023-09-19T09:08:59;18.40;;;3.00;;
25263;SDS011;13211;51.796;5.808;2023-09-19T09:11:27;19.83;;;2.50;;
25263;SDS011;13211;51.796;5.808;2023-09-19T09:13:55;20.40;;;3.08;;
25263;SDS011;13211;51.796;5.808;2023-09-19T09:16:24;15.80;;;2.80;;
25263;SDS011;13211;51.796;5.808;2023-09-19T09:18:53;20.08;;;2.70;;
25263;SDS011;13211;51.796;5.808;2023-09-19T09:21:22;14.18;;;2.90;;
25263;SDS011;13211;51.796;5.808;2023-09-19T09:23:52;22.63;;;3.08;;
25263;SDS011;13211;51.796;5.808;2023-09-19T09:26:40;24.58;;;3.70;;
25263;SDS011;13211;51.796;5.808;2023-09-19T09:29:09;21.90;;;2.65;;
25263;SDS011;13211;51.796;5.808;2023-09-19T09:31:37;17.92;;;3.03;;
25263;SDS011;13211;51.796;5.808;2023-09-19T09:34:05;19.38;;;3.20;;
25263;SDS011;13211;51.796;5.808;2023-09-19T09:36:34;18.80;;;3.35;;
25263;SDS011;13211;51.796;5.808;2023-09-19T09:39:03;17.33;;;3.33;;
25263;SDS011;13211;51.796;5.808;2023-09-19T09:41:52;21.02;;;3.15;;
25263;SDS011;13211;51.796;5.808;2023-09-19T09:44:19;18.25;;;2.85;;
25263;SDS011;13211;51.796;5.808;2023-09-19T09:46:47;28.98;;;3.35;;
25263;SDS011;13211;51.796;5.808;2023-09-19T09:49:22;21.48;;;3.90;;
25263;SDS011;13211;51.796;5.808;2023-09-19T09:52:00;15.73;;;3.05;;
25263;SDS011;13211;51.796;5.808;2023-09-19T09:54:37;22.95;;;3.65;;
25263;SDS011;13211;51.796;5.808;2023-09-19T10:00:23;25.35;;;3.80;;
25263;SDS011;13211;51.796;5.808;2023-09-19T10:02:58;17.27;;;3.10;;
25263;SDS011;13211;51.796;5.808;2023-09-19T10:05:27;16.70;;;3.20;;
25263;SDS011;13211;51.796;5.808;2023-09-19T10:08:10;17.00;;;2.80;;
25263;SDS011;13211;51.796;5.808;2023-09-19T10:10:39;20.75;;;2.83;;
25263;SDS011;13211;51.796;5.808;2023-09-19T10:13:10;12.73;;;2.70;;
25263;SDS011;13211;51.796;5.808;2023-09-19T10:15:42;18.73;;;3.45;;
25263;SDS011;13211;51.796;5.808;2023-09-19T10:18:37;21.33;;;3.15;;
25263;SDS011;13211;51.796;5.808;2023-09-19T10:21:06;16.45;;;2.55;;
25263;SDS011;13211;51.796;5.808;2023-09-19T10:23:37;30.20;;;2.78;;
25263;SDS011;13211;51.796;5.808;2023-09-19T10:26:05;18.45;;;2.47;;
25263;SDS011;13211;51.796;5.808;2023-09-19T10:28:35;17.20;;;2.50;;
25263;SDS011;13211;51.796;5.808;2023-09-19T10:31:05;21.50;;;2.78;;
25263;SDS011;13211;51.796;5.808;2023-09-19T10:33:36;24.10;;;3.20;;
25263;SDS011;13211;51.796;5.808;2023-09-19T10:36:04;13.75;;;2.97;;
25263;SDS011;13211;51.796;5.808;2023-09-19T10:38:33;20.00;;;2.53;;
25263;SDS011;13211;51.796;5.808;2023-09-19T10:41:02;13.88;;;2.90;;
25263;SDS011;13211;51.796;5.808;2023-09-19T10:43:31;19.13;;;2.60;;
25263;SDS011;13211;51.796;5.808;2023-09-19T10:46:03;17.60;;;2.40;;
25263;SDS011;13211;51.796;5.808;2023-09-19T10:48:32;15.60;;;2.50;;
25263;SDS011;13211;51.796;5.808;2023-09-19T10:53:52;15.40;;;2.70;;
25263;SDS011;13211;51.796;5.808;2023-09-19T10:56:32;25.50;;;3.53;;
25263;SDS011;13211;51.796;5.808;2023-09-19T11:01:41;18.90;;;4.18;;
25263;SDS011;13211;51.796;5.808;2023-09-19T11:04:21;18.58;;;2.58;;
25263;SDS011;13211;51.796;5.808;2023-09-19T11:09:53;13.38;;;2.50;;
25263;SDS011;13211;51.796;5.808;2023-09-19T11:14:52;22.45;;;2.90;;
25263;SDS011;13211;51.796;5.808;2023-09-19T11:30:35;12.88;;;2.10;;
25263;SDS011;13211;51.796;5.808;2023-09-19T11:36:13;12.77;;;2.10;;
25263;SDS011;13211;51.796;5.808;2023-09-19T11:43:52;12.70;;;2.08;;
25263;SDS011;13211;51.796;5.808;2023-09-19T11:46:27;10.82;;;1.70;;
25263;SDS011;13211;51.796;5.808;2023-09-19T11:48:55;12.95;;;1.95;;
25263;SDS011;13211;51.796;5.808;2023-09-19T11:51:37;10.52;;;1.85;;
25263;SDS011;13211;51.796;5.808;2023-09-19T11:54:13;14.82;;;2.08;;
25263;SDS011;13211;51.796;5.808;2023-09-19T11:56:55;15.40;;;2.25;;
25263;SDS011;13211;51.796;5.808;2023-09-19T11:59:24;13.55;;;2.08;;
25263;SDS011;13211;51.796;5.808;2023-09-19T12:01:58;12.85;;;2.65;;
25263;SDS011;13211;51.796;5.808;2023-09-19T12:04:35;13.43;;;2.08;;
25263;SDS011;13211;51.796;5.808;2023-09-19T12:07:07;14.80;;;2.00;;
25263;SDS011;13211;51.796;5.808;2023-09-19T12:09:43;12.65;;;2.47;;
25263;SDS011;13211;51.796;5.808;2023-09-19T12:12:20;12.38;;;2.03;;
25263;SDS011;13211;51.796;5.808;2023-09-19T12:14:48;10.07;;;1.63;;
25263;SDS011;13211;51.796;5.808;2023-09-19T12:17:18;7.28;;;1.50;;
25263;SDS011;13211;51.796;5.808;2023-09-19T12:19:55;14.52;;;1.60;;
25263;SDS011;13211;51.796;5.808;2023-09-19T12:22:23;13.10;;;1.73;;
25263;SDS011;13211;51.796;5.808;2023-09-19T12:24:51;11.75;;;2.38;;
25263;SDS011;13211;51.796;5.808;2023-09-19T12:27:21;9.18;;;1.92;;
25263;SDS011;13211;51.796;5.808;2023-09-19T12:29:49;8.35;;;1.75;;
25263;SDS011;13211;51.796;5.808;2023-09-19T12:32:17;12.43;;;1.50;;
25263;SDS011;13211;51.796;5.808;2023-09-19T12:34:51;13.38;;;1.30;;
25263;SDS011;13211;51.796;5.808;2023-09-19T12:37:21;6.45;;;1.50;;
25263;SDS011;13211;51.796;5.808;2023-09-19T12:39:50;10.80;;;1.90;;
25263;SDS011;13211;51.796;5.808;2023-09-19T12:42:23;14.18;;;1.73;;
25263;SDS011;13211;51.796;5.808;2023-09-19T12:44:55;10.73;;;1.40;;
25263;SDS011;13211;51.796;5.808;2023-09-19T12:47:24;8.85;;;1.33;;
25263;SDS011;13211;51.796;5.808;2023-09-19T12:50:08;8.10;;;1.60;;
25263;SDS011;13211;51.796;5.808;2023-09-19T12:52:52;6.80;;;1.10;;
25263;SDS011;13211;51.796;5.808;2023-09-19T12:55:27;11.25;;;1.40;;
25263;SDS011;13211;51.796;5.808;2023-09-19T13:03:17;10.55;;;1.60;;
25263;SDS011;13211;51.796;5.808;2023-09-19T13:05:48;6.47;;;1.10;;
25263;SDS011;13211;51.796;5.808;2023-09-19T13:08:21;8.00;;;1.42;;
25263;SDS011;13211;51.796;5.808;2023-09-19T13:10:59;8.98;;;1.33;;
25263;SDS011;13211;51.796;5.808;2023-09-19T13:13:27;8.30;;;1.35;;
25263;SDS011;13211;51.796;5.808;2023-09-19T13:15:55;7.18;;;1.20;;
25263;SDS011;13211;51.796;5.808;2023-09-19T13:18:28;11.63;;;1.48;;
25263;SDS011;13211;51.796;5.808;2023-09-19T13:21:06;5.28;;;1.20;;
25263;SDS011;13211;51.796;5.808;2023-09-19T13:23:53;6.53;;;1.48;;
25263;SDS011;13211;51.796;5.808;2023-09-19T13:26:25;7.18;;;1.25;;
25263;SDS011;13211;51.796;5.808;2023-09-19T13:28:54;8.27;;;1.20;;
25263;SDS011;13211;51.796;5.808;2023-09-19T13:31:22;6.38;;;1.13;;
25263;SDS011;13211;51.796;5.808;2023-09-19T13:33:51;8.02;;;1.13;;
25263;SDS011;13211;51.796;5.808;2023-09-19T13:36:18;9.27;;;1.10;;
25263;SDS011;13211;51.796;5.808;2023-09-19T13:38:46;8.43;;;1.25;;
25263;SDS011;13211;51.796;5.808;2023-09-19T13:41:16;6.70;;;1.20;;
25263;SDS011;13211;51.796;5.808;2023-09-19T13:43:43;6.15;;;1.10;;
25263;SDS011;13211;51.796;5.808;2023-09-19T13:46:15;8.52;;;1.33;;
25263;SDS011;13211;51.796;5.808;2023-09-19T13:48:44;7.82;;;1.25;;
25263;SDS011;13211;51.796;5.808;2023-09-19T13:51:12;4.30;;;0.90;;
25263;SDS011;13211;51.796;5.808;2023-09-19T13:53:41;9.00;;;1.10;;
25263;SDS011;13211;51.796;5.808;2023-09-19T13:56:09;5.07;;;1.23;;
25263;SDS011;13211;51.796;5.808;2023-09-19T13:58:37;7.80;;;1.10;;
25263;SDS011;13211;51.796;5.808;2023-09-19T14:01:05;7.65;;;0.95;;
25263;SDS011;13211;51.796;5.808;2023-09-19T14:03:39;9.02;;;1.30;;
25263;SDS011;13211;51.796;5.808;2023-09-19T14:06:07;9.63;;;1.00;;
25263;SDS011;13211;51.796;5.808;2023-09-19T14:08:35;10.70;;;1.10;;
25263;SDS011;13211;51.796;5.808;2023-09-19T14:11:09;5.95;;;0.93;;
25263;SDS011;13211;51.796;5.808;2023-09-19T14:13:37;5.20;;;1.10;;
25263;SDS011;13211;51.796;5.808;2023-09-19T14:16:08;11.82;;;1.40;;
25263;SDS011;13211;51.796;5.808;2023-09-19T14:18:36;13.07;;;1.25;;
25263;SDS011;13211;51.796;5.808;2023-09-19T14:21:04;11.30;;;1.30;;
25263;SDS011;13211;51.796;5.808;2023-09-19T14:23:39;12.60;;;0.90;;
25263;SDS011;13211;51.796;5.808;2023-09-19T14:26:57;7.95;;;1.20;;
25263;SDS011;13211;51.796;5.808;2023-09-19T14:29:59;7.38;;;1.20;;
25263;SDS011;13211;51.796;5.808;2023-09-19T14:32:29;8.15;;;1.10;;
25263;SDS011;13211;51.796;5.808;2023-09-19T14:35:02;4.75;;;1.02;;
25263;SDS011;13211;51.796;5.808;2023-09-19T14:37:39;6.57;;;1.67;;
25263;SDS011;13211;51.796;5.808;2023-09-19T14:40:08;9.27;;;1.10;;
25263;SDS011;13211;51.796;5.808;2023-09-19T14:42:38;11.25;;;1.35;;
25263;SDS011;13211;51.796;5.808;2023-09-19T14:45:11;4.05;;;1.00;;
25263;SDS011;13211;51.796;5.808;2023-09-19T14:47:52;7.10;;;1.60;;
25263;SDS011;13211;51.796;5.808;2023-09-19T14:50:24;8.30;;;1.35;;
25263;SDS011;13211;51.796;5.808;2023-09-19T14:52:53;4.82;;;1.38;;
25263;SDS011;13211;51.796;5.808;2023-09-19T14:55:24;4.93;;;1.15;;
25263;SDS011;13211;51.796;5.808;2023-09-19T14:58:02;7.43;;;1.30;;
25263;SDS011;13211;51.796;5.808;2023-09-19T15:04:25;9.63;;;1.38;;
25263;SDS011;13211;51.796;5.808;2023-09-19T15:13:05;6.70;;;1.30;;
25263;SDS011;13211;51.796;5.808;2023-09-19T15:15:34;3.83;;;0.95;;
25263;SDS011;13211;51.796;5.808;2023-09-19T15:18:02;6.88;;;1.20;;
25263;SDS011;13211;51.796;5.808;2023-09-19T15:20:31;10.23;;;1.30;;
25263;SDS011;13211;51.796;5.808;2023-09-19T15:22:58;8.70;;;1.02;;
25263;SDS011;13211;51.796;5.808;2023-09-19T15:25:28;6.63;;;1.23;;
25263;SDS011;13211;51.796;5.808;2023-09-19T15:27:56;9.43;;;1.90;;
25263;SDS011;13211;51.796;5.808;2023-09-19T15:30:24;7.15;;;1.23;;
25263;SDS011;13211;51.796;5.808;2023-09-19T15:32:52;8.77;;;1.50;;
25263;SDS011;13211;51.796;5.808;2023-09-19T15:35:20;3.60;;;0.90;;
25263;SDS011;13211;51.796;5.808;2023-09-19T15:37:48;10.35;;;1.17;;
25263;SDS011;13211;51.796;5.808;2023-09-19T15:40:16;11.73;;;1.73;;
25263;SDS011;13211;51.796;5.808;2023-09-19T15:42:44;6.05;;;1.45;;
25263;SDS011;13211;51.796;5.808;2023-09-19T15:45:13;9.05;;;1.35;;
25263;SDS011;13211;51.796;5.808;2023-09-19T15:47:43;7.47;;;1.35;;
25263;SDS011;13211;51.796;5.808;2023-09-19T15:50:11;6.47;;;1.23;;
25263;SDS011;13211;51.796;5.808;2023-09-19T15:52:42;8.60;;;1.27;;
25263;SDS011;13211;51.796;5.808;2023-09-19T15:55:10;5.97;;;1.08;;
25263;SDS011;13211;51.796;5.808;2023-09-19T15:57:38;9.90;;;1.45;;
25263;SDS011;13211;51.796;5.808;2023-09-19T16:00:06;8.25;;;1.40;;
25263;SDS011;13211;51.796;5.808;2023-09-19T16:02:40;9.70;;;1.42;;